sensor_id;sensor_type;location;lat;lon;timestamp;P1;durP1;ratioP1;P2;durP2;ratioP2
3253;SDS011;1639;42.804;23.342;2023-04-25T00:02:20;5.20;;;1.60;;
3253;SDS011;1639;42.804;23.342;2023-04-25T00:04:45;4.80;;;1.10;;
3253;SDS011;1639;42.804;23.342;2023-04-25T00:07:11;4.87;;;1.27;;
3253;SDS011;1639;42.804;23.342;2023-04-25T00:09:37;5.10;;;1.50;;
3253;SDS011;1639;42.804;23.342;2023-04-25T00:12:03;5.20;;;1.77;;
3253;SDS011;1639;42.804;23.342;2023-04-25T00:14:29;4.87;;;1.10;;
3253;SDS011;1639;42.804;23.342;2023-04-25T00:16:54;5.30;;;1.70;;
3253;SDS011;1639;42.804;23.342;2023-04-25T00:19:20;5.03;;;1.50;;
3253;SDS011;1639;42.804;23.342;2023-04-25T00:21:45;5.00;;;1.63;;
3253;SDS011;1639;42.804;23.342;2023-04-25T00:24:11;4.87;;;1.30;;
3253;SDS011;1639;42.804;23.342;2023-04-25T00:26:37;5.37;;;1.37;;
3253;SDS011;1639;42.804;23.342;2023-04-25T00:29:02;5.30;;;1.93;;
3253;SDS011;1639;42.804;23.342;2023-04-25T00:31:28;4.90;;;1.20;;
3253;SDS011;1639;42.804;23.342;2023-04-25T00:33:54;5.00;;;1.40;;
3253;SDS011;1639;42.804;23.342;2023-04-25T00:36:19;4.73;;;1.27;;
3253;SDS011;1639;42.804;23.342;2023-04-25T00:38:45;4.80;;;1.20;;
3253;SDS011;1639;42.804;23.342;2023-04-25T00:41:10;5.03;;;1.60;;
3253;SDS011;1639;42.804;23.342;2023-04-25T00:43:36;4.87;;;1.30;;
3253;SDS011;1639;42.804;23.342;2023-04-25T00:46:02;4.83;;;1.30;;
3253;SDS011;1639;42.804;23.342;2023-04-25T00:48:28;6.03;;;1.50;;
3253;SDS011;1639;42.804;23.342;2023-04-25T00:50:54;5.30;;;1.50;;
3253;SDS011;1639;42.804;23.342;2023-04-25T00:53:23;5.83;;;1.63;;
3253;SDS011;1639;42.804;23.342;2023-04-25T00:55:49;5.63;;;1.97;;
3253;SDS011;1639;42.804;23.342;2023-04-25T00:58:18;4.90;;;1.30;;
3253;SDS011;1639;42.804;23.342;2023-04-25T01:00:45;4.90;;;1.50;;
3253;SDS011;1639;42.804;23.342;2023-04-25T01:03:12;5.93;;;1.40;;
3253;SDS011;1639;42.804;23.342;2023-04-25T01:05:39;4.87;;;1.30;;
3253;SDS011;1639;42.804;23.342;2023-04-25T01:08:06;5.77;;;1.90;;
3253;SDS011;1639;42.804;23.342;2023-04-25T01:10:32;5.60;;;1.27;;
3253;SDS011;1639;42.804;23.342;2023-04-25T01:12:57;5.00;;;1.83;;
3253;SDS011;1639;42.804;23.342;2023-04-25T01:15:23;5.93;;;1.40;;
3253;SDS011;1639;42.804;23.342;2023-04-25T01:17:48;5.83;;;1.60;;
3253;SDS011;1639;42.804;23.342;2023-04-25T01:20:14;5.50;;;1.67;;
3253;SDS011;1639;42.804;23.342;2023-04-25T01:22:41;5.00;;;1.60;;
3253;SDS011;1639;42.804;23.342;2023-04-25T01:25:07;5.20;;;1.37;;
3253;SDS011;1639;42.804;23.342;2023-04-25T01:27:33;4.83;;;1.23;;
3253;SDS011;1639;42.804;23.342;2023-04-25T01:29:58;6.20;;;2.43;;
3253;SDS011;1639;42.804;23.342;2023-04-25T01:32:24;4.90;;;1.30;;
3253;SDS011;1639;42.804;23.342;2023-04-25T01:34:50;6.80;;;1.90;;
3253;SDS011;1639;42.804;23.342;2023-04-25T01:37:16;5.10;;;1.73;;
3253;SDS011;1639;42.804;23.342;2023-04-25T01:39:42;4.87;;;1.20;;
3253;SDS011;1639;42.804;23.342;2023-04-25T01:42:07;5.23;;;1.73;;
3253;SDS011;1639;42.804;23.342;2023-04-25T01:44:33;4.83;;;1.20;;
3253;SDS011;1639;42.804;23.342;2023-04-25T01:46:58;14.50;;;3.13;;
3253;SDS011;1639;42.804;23.342;2023-04-25T01:49:24;12.73;;;6.23;;
3253;SDS011;1639;42.804;23.342;2023-04-25T01:51:49;10.23;;;4.23;;
3253;SDS011;1639;42.804;23.342;2023-04-25T01:54:15;5.50;;;2.20;;
3253;SDS011;1639;42.804;23.342;2023-04-25T01:56:40;8.80;;;2.07;;
3253;SDS011;1639;42.804;23.342;2023-04-25T01:59:06;4.77;;;1.30;;
3253;SDS011;1639;42.804;23.342;2023-04-25T02:01:31;5.53;;;1.83;;
3253;SDS011;1639;42.804;23.342;2023-04-25T02:03:57;5.20;;;1.50;;
3253;SDS011;1639;42.804;23.342;2023-04-25T02:06:23;5.40;;;1.73;;
3253;SDS011;1639;42.804;23.342;2023-04-25T02:08:48;5.40;;;1.70;;
3253;SDS011;1639;42.804;23.342;2023-04-25T02:11:13;6.53;;;2.10;;
3253;SDS011;1639;42.804;23.342;2023-04-25T02:13:39;4.90;;;1.20;;
3253;SDS011;1639;42.804;23.342;2023-04-25T02:16:04;4.97;;;1.30;;
3253;SDS011;1639;42.804;23.342;2023-04-25T02:18:30;9.13;;;1.90;;
3253;SDS011;1639;42.804;23.342;2023-04-25T02:20:56;5.20;;;1.60;;
3253;SDS011;1639;42.804;23.342;2023-04-25T02:23:24;4.90;;;1.20;;
3253;SDS011;1639;42.804;23.342;2023-04-25T02:25:49;4.87;;;1.20;;
3253;SDS011;1639;42.804;23.342;2023-04-25T02:28:15;5.00;;;1.43;;
3253;SDS011;1639;42.804;23.342;2023-04-25T02:30:40;5.00;;;1.60;;
3253;SDS011;1639;42.804;23.342;2023-04-25T02:33:06;5.50;;;1.70;;
3253;SDS011;1639;42.804;23.342;2023-04-25T02:35:31;5.47;;;1.80;;
3253;SDS011;1639;42.804;23.342;2023-04-25T02:37:57;5.70;;;1.83;;
3253;SDS011;1639;42.804;23.342;2023-04-25T02:40:22;4.90;;;1.30;;
3253;SDS011;1639;42.804;23.342;2023-04-25T02:42:47;5.20;;;1.60;;
3253;SDS011;1639;42.804;23.342;2023-04-25T02:45:13;5.50;;;1.43;;
3253;SDS011;1639;42.804;23.342;2023-04-25T02:47:39;5.30;;;1.30;;
3253;SDS011;1639;42.804;23.342;2023-04-25T02:50:05;5.20;;;1.37;;
3253;SDS011;1639;42.804;23.342;2023-04-25T02:52:31;5.57;;;2.00;;
3253;SDS011;1639;42.804;23.342;2023-04-25T02:54:56;4.97;;;1.30;;
3253;SDS011;1639;42.804;23.342;2023-04-25T02:57:21;7.73;;;2.30;;
3253;SDS011;1639;42.804;23.342;2023-04-25T02:59:47;4.90;;;1.30;;
3253;SDS011;1639;42.804;23.342;2023-04-25T03:02:12;4.97;;;1.50;;
3253;SDS011;1639;42.804;23.342;2023-04-25T03:04:38;5.10;;;1.20;;
3253;SDS011;1639;42.804;23.342;2023-04-25T03:07:03;6.17;;;1.90;;
3253;SDS011;1639;42.804;23.342;2023-04-25T03:09:30;4.90;;;1.30;;
3253;SDS011;1639;42.804;23.342;2023-04-25T03:11:55;4.80;;;1.20;;
3253;SDS011;1639;42.804;23.342;2023-04-25T03:14:21;6.47;;;2.23;;
3253;SDS011;1639;42.804;23.342;2023-04-25T03:16:46;6.53;;;1.50;;
3253;SDS011;1639;42.804;23.342;2023-04-25T03:19:11;4.93;;;1.30;;
3253;SDS011;1639;42.804;23.342;2023-04-25T03:21:37;4.93;;;1.30;;
3253;SDS011;1639;42.804;23.342;2023-04-25T03:24:03;5.20;;;1.50;;
3253;SDS011;1639;42.804;23.342;2023-04-25T03:26:29;5.10;;;1.40;;
3253;SDS011;1639;42.804;23.342;2023-04-25T03:28:55;5.40;;;1.47;;
3253;SDS011;1639;42.804;23.342;2023-04-25T03:31:20;4.93;;;1.20;;
3253;SDS011;1639;42.804;23.342;2023-04-25T03:33:47;4.87;;;1.13;;
3253;SDS011;1639;42.804;23.342;2023-04-25T03:36:12;4.90;;;1.20;;
3253;SDS011;1639;42.804;23.342;2023-04-25T03:38:38;6.30;;;1.60;;
3253;SDS011;1639;42.804;23.342;2023-04-25T03:41:03;4.90;;;1.20;;
3253;SDS011;1639;42.804;23.342;2023-04-25T03:43:28;4.90;;;1.20;;
3253;SDS011;1639;42.804;23.342;2023-04-25T03:45:54;5.07;;;1.73;;
3253;SDS011;1639;42.804;23.342;2023-04-25T03:48:19;5.50;;;1.80;;
3253;SDS011;1639;42.804;23.342;2023-04-25T03:50:47;5.13;;;1.63;;
3253;SDS011;1639;42.804;23.342;2023-04-25T03:53:12;5.70;;;2.53;;
3253;SDS011;1639;42.804;23.342;2023-04-25T03:55:38;5.40;;;1.77;;
3253;SDS011;1639;42.804;23.342;2023-04-25T03:58:03;5.33;;;1.60;;
3253;SDS011;1639;42.804;23.342;2023-04-25T04:00:28;11.33;;;2.47;;
3253;SDS011;1639;42.804;23.342;2023-04-25T04:02:54;6.03;;;2.70;;
3253;SDS011;1639;42.804;23.342;2023-04-25T04:05:19;6.17;;;1.73;;
3253;SDS011;1639;42.804;23.342;2023-04-25T04:07:45;5.63;;;1.67;;
3253;SDS011;1639;42.804;23.342;2023-04-25T04:10:10;6.73;;;2.07;;
3253;SDS011;1639;42.804;23.342;2023-04-25T04:12:36;5.40;;;1.70;;
3253;SDS011;1639;42.804;23.342;2023-04-25T04:15:02;5.37;;;2.00;;
3253;SDS011;1639;42.804;23.342;2023-04-25T04:17:28;5.67;;;2.17;;
3253;SDS011;1639;42.804;23.342;2023-04-25T04:19:54;5.97;;;2.90;;
3253;SDS011;1639;42.804;23.342;2023-04-25T04:22:20;5.37;;;2.03;;
3253;SDS011;1639;42.804;23.342;2023-04-25T04:24:45;6.40;;;2.27;;
3253;SDS011;1639;42.804;23.342;2023-04-25T04:27:11;5.63;;;2.23;;
3253;SDS011;1639;42.804;23.342;2023-04-25T04:29:37;6.20;;;2.80;;
3253;SDS011;1639;42.804;23.342;2023-04-25T04:32:03;5.87;;;1.87;;
3253;SDS011;1639;42.804;23.342;2023-04-25T04:34:28;7.67;;;2.67;;
3253;SDS011;1639;42.804;23.342;2023-04-25T04:36:54;6.03;;;2.23;;
3253;SDS011;1639;42.804;23.342;2023-04-25T04:39:20;8.37;;;2.30;;
3253;SDS011;1639;42.804;23.342;2023-04-25T04:41:46;5.87;;;2.07;;
3253;SDS011;1639;42.804;23.342;2023-04-25T04:44:11;7.73;;;2.73;;
3253;SDS011;1639;42.804;23.342;2023-04-25T04:46:37;5.10;;;1.53;;
3253;SDS011;1639;42.804;23.342;2023-04-25T04:49:06;5.57;;;2.63;;
3253;SDS011;1639;42.804;23.342;2023-04-25T04:51:33;7.90;;;2.80;;
3253;SDS011;1639;42.804;23.342;2023-04-25T04:53:58;5.20;;;1.70;;
3253;SDS011;1639;42.804;23.342;2023-04-25T04:56:27;7.37;;;2.47;;
3253;SDS011;1639;42.804;23.342;2023-04-25T04:58:58;5.67;;;2.10;;
3253;SDS011;1639;42.804;23.342;2023-04-25T05:01:24;8.17;;;1.90;;
3253;SDS011;1639;42.804;23.342;2023-04-25T05:03:49;7.23;;;2.07;;
3253;SDS011;1639;42.804;23.342;2023-04-25T05:06:16;7.70;;;1.70;;
3253;SDS011;1639;42.804;23.342;2023-04-25T05:08:42;6.17;;;2.17;;
3253;SDS011;1639;42.804;23.342;2023-04-25T05:11:08;5.50;;;2.47;;
3253;SDS011;1639;42.804;23.342;2023-04-25T05:13:33;5.90;;;2.17;;
3253;SDS011;1639;42.804;23.342;2023-04-25T05:15:58;7.03;;;2.27;;
3253;SDS011;1639;42.804;23.342;2023-04-25T05:18:24;5.27;;;2.10;;
3253;SDS011;1639;42.804;23.342;2023-04-25T05:20:49;4.77;;;1.30;;
3253;SDS011;1639;42.804;23.342;2023-04-25T05:23:15;6.50;;;1.53;;
3253;SDS011;1639;42.804;23.342;2023-04-25T05:25:41;5.30;;;1.67;;
3253;SDS011;1639;42.804;23.342;2023-04-25T05:28:06;5.23;;;1.93;;
3253;SDS011;1639;42.804;23.342;2023-04-25T05:30:32;5.40;;;2.00;;
3253;SDS011;1639;42.804;23.342;2023-04-25T05:32:58;5.67;;;1.50;;
3253;SDS011;1639;42.804;23.342;2023-04-25T05:35:24;5.00;;;1.60;;
3253;SDS011;1639;42.804;23.342;2023-04-25T05:37:49;5.40;;;1.77;;
3253;SDS011;1639;42.804;23.342;2023-04-25T05:40:14;5.10;;;1.63;;
3253;SDS011;1639;42.804;23.342;2023-04-25T05:42:40;5.30;;;1.93;;
3253;SDS011;1639;42.804;23.342;2023-04-25T05:45:05;5.00;;;1.60;;
3253;SDS011;1639;42.804;23.342;2023-04-25T05:47:31;8.73;;;2.57;;
3253;SDS011;1639;42.804;23.342;2023-04-25T05:49:56;7.77;;;2.50;;
3253;SDS011;1639;42.804;23.342;2023-04-25T05:52:22;7.60;;;2.70;;
3253;SDS011;1639;42.804;23.342;2023-04-25T05:54:47;7.63;;;3.30;;
3253;SDS011;1639;42.804;23.342;2023-04-25T05:57:22;7.17;;;2.17;;
3253;SDS011;1639;42.804;23.342;2023-04-25T05:59:48;7.20;;;2.73;;
3253;SDS011;1639;42.804;23.342;2023-04-25T06:02:14;7.97;;;2.40;;
3253;SDS011;1639;42.804;23.342;2023-04-25T06:04:39;9.07;;;2.50;;
3253;SDS011;1639;42.804;23.342;2023-04-25T06:07:04;8.90;;;4.37;;
3253;SDS011;1639;42.804;23.342;2023-04-25T06:09:30;5.40;;;2.27;;
3253;SDS011;1639;42.804;23.342;2023-04-25T06:11:55;6.00;;;2.40;;
3253;SDS011;1639;42.804;23.342;2023-04-25T06:14:20;6.80;;;3.40;;
3253;SDS011;1639;42.804;23.342;2023-04-25T06:16:46;6.27;;;2.70;;
3253;SDS011;1639;42.804;23.342;2023-04-25T06:19:11;5.90;;;2.17;;
3253;SDS011;1639;42.804;23.342;2023-04-25T06:21:36;5.40;;;3.00;;
3253;SDS011;1639;42.804;23.342;2023-04-25T06:24:02;7.93;;;3.03;;
3253;SDS011;1639;42.804;23.342;2023-04-25T06:26:28;6.53;;;2.13;;
3253;SDS011;1639;42.804;23.342;2023-04-25T06:28:53;8.23;;;4.07;;
3253;SDS011;1639;42.804;23.342;2023-04-25T06:31:18;8.67;;;2.60;;
3253;SDS011;1639;42.804;23.342;2023-04-25T06:33:44;10.13;;;3.43;;
3253;SDS011;1639;42.804;23.342;2023-04-25T06:36:09;5.20;;;2.33;;
3253;SDS011;1639;42.804;23.342;2023-04-25T06:38:35;5.60;;;2.30;;
3253;SDS011;1639;42.804;23.342;2023-04-25T06:41:00;5.37;;;2.13;;
3253;SDS011;1639;42.804;23.342;2023-04-25T06:43:26;5.67;;;2.40;;
3253;SDS011;1639;42.804;23.342;2023-04-25T06:45:51;6.27;;;2.53;;
3253;SDS011;1639;42.804;23.342;2023-04-25T06:48:17;6.60;;;2.60;;
3253;SDS011;1639;42.804;23.342;2023-04-25T06:50:42;8.53;;;3.37;;
3253;SDS011;1639;42.804;23.342;2023-04-25T06:53:07;8.30;;;2.63;;
3253;SDS011;1639;42.804;23.342;2023-04-25T06:55:33;6.73;;;2.77;;
3253;SDS011;1639;42.804;23.342;2023-04-25T06:57:59;5.17;;;2.00;;
3253;SDS011;1639;42.804;23.342;2023-04-25T07:00:25;5.60;;;2.47;;
3253;SDS011;1639;42.804;23.342;2023-04-25T07:02:50;7.43;;;2.50;;
3253;SDS011;1639;42.804;23.342;2023-04-25T07:05:16;6.30;;;2.33;;
3253;SDS011;1639;42.804;23.342;2023-04-25T07:07:41;9.07;;;2.77;;
3253;SDS011;1639;42.804;23.342;2023-04-25T07:10:06;12.37;;;3.60;;
3253;SDS011;1639;42.804;23.342;2023-04-25T07:12:32;9.63;;;3.03;;
3253;SDS011;1639;42.804;23.342;2023-04-25T07:14:57;5.60;;;2.17;;
3253;SDS011;1639;42.804;23.342;2023-04-25T07:17:23;7.57;;;2.70;;
3253;SDS011;1639;42.804;23.342;2023-04-25T07:19:48;6.67;;;2.60;;
3253;SDS011;1639;42.804;23.342;2023-04-25T07:22:14;10.90;;;4.30;;
3253;SDS011;1639;42.804;23.342;2023-04-25T07:24:40;7.10;;;2.73;;
3253;SDS011;1639;42.804;23.342;2023-04-25T07:27:05;7.40;;;2.30;;
3253;SDS011;1639;42.804;23.342;2023-04-25T07:29:31;6.30;;;3.10;;
3253;SDS011;1639;42.804;23.342;2023-04-25T07:31:56;7.77;;;3.27;;
3253;SDS011;1639;42.804;23.342;2023-04-25T07:34:22;5.70;;;3.00;;
3253;SDS011;1639;42.804;23.342;2023-04-25T07:36:47;7.20;;;3.50;;
3253;SDS011;1639;42.804;23.342;2023-04-25T07:39:12;5.87;;;1.90;;
3253;SDS011;1639;42.804;23.342;2023-04-25T07:41:38;6.07;;;2.47;;
3253;SDS011;1639;42.804;23.342;2023-04-25T07:44:03;7.00;;;2.70;;
3253;SDS011;1639;42.804;23.342;2023-04-25T07:46:29;5.53;;;1.93;;
3253;SDS011;1639;42.804;23.342;2023-04-25T07:48:54;6.90;;;2.10;;
3253;SDS011;1639;42.804;23.342;2023-04-25T07:51:19;8.10;;;2.70;;
3253;SDS011;1639;42.804;23.342;2023-04-25T07:53:47;8.13;;;2.83;;
3253;SDS011;1639;42.804;23.342;2023-04-25T07:56:12;5.30;;;1.90;;
3253;SDS011;1639;42.804;23.342;2023-04-25T07:58:38;5.10;;;2.03;;
3253;SDS011;1639;42.804;23.342;2023-04-25T08:01:03;5.50;;;2.27;;
3253;SDS011;1639;42.804;23.342;2023-04-25T08:03:29;5.20;;;2.13;;
3253;SDS011;1639;42.804;23.342;2023-04-25T08:05:54;5.60;;;2.03;;
3253;SDS011;1639;42.804;23.342;2023-04-25T08:08:20;5.40;;;1.97;;
3253;SDS011;1639;42.804;23.342;2023-04-25T08:10:45;5.53;;;2.40;;
3253;SDS011;1639;42.804;23.342;2023-04-25T08:13:13;6.83;;;2.13;;
3253;SDS011;1639;42.804;23.342;2023-04-25T08:15:38;5.90;;;2.60;;
3253;SDS011;1639;42.804;23.342;2023-04-25T08:18:04;7.60;;;3.77;;
3253;SDS011;1639;42.804;23.342;2023-04-25T08:20:30;12.73;;;2.97;;
3253;SDS011;1639;42.804;23.342;2023-04-25T08:22:55;6.27;;;2.03;;
3253;SDS011;1639;42.804;23.342;2023-04-25T08:25:21;5.83;;;2.40;;
3253;SDS011;1639;42.804;23.342;2023-04-25T08:27:46;8.80;;;2.23;;
3253;SDS011;1639;42.804;23.342;2023-04-25T08:30:12;6.20;;;2.43;;
3253;SDS011;1639;42.804;23.342;2023-04-25T08:32:37;6.70;;;2.60;;
3253;SDS011;1639;42.804;23.342;2023-04-25T08:35:03;5.37;;;2.00;;
3253;SDS011;1639;42.804;23.342;2023-04-25T08:37:29;6.80;;;1.73;;
3253;SDS011;1639;42.804;23.342;2023-04-25T08:39:54;5.10;;;1.87;;
3253;SDS011;1639;42.804;23.342;2023-04-25T08:42:21;4.87;;;1.50;;
3253;SDS011;1639;42.804;23.342;2023-04-25T08:44:48;4.90;;;1.40;;
3253;SDS011;1639;42.804;23.342;2023-04-25T08:47:14;8.87;;;2.03;;
3253;SDS011;1639;42.804;23.342;2023-04-25T08:49:39;6.90;;;2.10;;
3253;SDS011;1639;42.804;23.342;2023-04-25T08:52:11;5.30;;;1.87;;
3253;SDS011;1639;42.804;23.342;2023-04-25T08:54:41;5.83;;;1.87;;
3253;SDS011;1639;42.804;23.342;2023-04-25T08:57:09;6.33;;;2.53;;
3253;SDS011;1639;42.804;23.342;2023-04-25T08:59:35;6.30;;;1.97;;
3253;SDS011;1639;42.804;23.342;2023-04-25T09:02:02;5.70;;;1.77;;
3253;SDS011;1639;42.804;23.342;2023-04-25T09:04:30;5.10;;;1.93;;
3253;SDS011;1639;42.804;23.342;2023-04-25T09:06:56;5.13;;;1.90;;
3253;SDS011;1639;42.804;23.342;2023-04-25T09:09:21;5.10;;;1.60;;
3253;SDS011;1639;42.804;23.342;2023-04-25T09:11:48;5.30;;;1.93;;
3253;SDS011;1639;42.804;23.342;2023-04-25T09:14:19;6.50;;;1.70;;
3253;SDS011;1639;42.804;23.342;2023-04-25T09:19:23;4.80;;;1.70;;
3253;SDS011;1639;42.804;23.342;2023-04-25T09:21:50;6.70;;;2.70;;
3253;SDS011;1639;42.804;23.342;2023-04-25T09:24:29;5.10;;;2.23;;
3253;SDS011;1639;42.804;23.342;2023-04-25T09:26:56;6.70;;;2.03;;
3253;SDS011;1639;42.804;23.342;2023-04-25T09:29:28;4.80;;;1.70;;
3253;SDS011;1639;42.804;23.342;2023-04-25T09:32:10;4.87;;;1.70;;
3253;SDS011;1639;42.804;23.342;2023-04-25T09:34:39;4.90;;;1.60;;
3253;SDS011;1639;42.804;23.342;2023-04-25T09:37:07;5.23;;;1.80;;
3253;SDS011;1639;42.804;23.342;2023-04-25T09:39:36;5.13;;;1.50;;
3253;SDS011;1639;42.804;23.342;2023-04-25T09:42:05;4.83;;;1.40;;
3253;SDS011;1639;42.804;23.342;2023-04-25T09:44:31;5.83;;;1.70;;
3253;SDS011;1639;42.804;23.342;2023-04-25T09:46:56;4.80;;;1.53;;
3253;SDS011;1639;42.804;23.342;2023-04-25T09:49:22;4.70;;;1.50;;
3253;SDS011;1639;42.804;23.342;2023-04-25T09:51:57;4.63;;;1.30;;
3253;SDS011;1639;42.804;23.342;2023-04-25T09:54:24;7.53;;;2.37;;
3253;SDS011;1639;42.804;23.342;2023-04-25T09:56:51;4.70;;;1.30;;
3253;SDS011;1639;42.804;23.342;2023-04-25T09:59:20;4.80;;;1.40;;
3253;SDS011;1639;42.804;23.342;2023-04-25T10:01:49;4.70;;;1.50;;
3253;SDS011;1639;42.804;23.342;2023-04-25T10:04:17;5.03;;;1.47;;
3253;SDS011;1639;42.804;23.342;2023-04-25T10:06:45;5.00;;;1.73;;
3253;SDS011;1639;42.804;23.342;2023-04-25T10:09:14;4.80;;;1.47;;
3253;SDS011;1639;42.804;23.342;2023-04-25T10:11:40;5.10;;;1.80;;
3253;SDS011;1639;42.804;23.342;2023-04-25T10:14:06;4.83;;;1.53;;
3253;SDS011;1639;42.804;23.342;2023-04-25T10:16:32;4.90;;;1.47;;
3253;SDS011;1639;42.804;23.342;2023-04-25T10:18:58;4.90;;;1.43;;
3253;SDS011;1639;42.804;23.342;2023-04-25T10:21:24;4.70;;;1.40;;
3253;SDS011;1639;42.804;23.342;2023-04-25T10:23:52;4.57;;;1.20;;
3253;SDS011;1639;42.804;23.342;2023-04-25T10:26:18;4.67;;;1.27;;
3253;SDS011;1639;42.804;23.342;2023-04-25T10:28:57;4.60;;;1.10;;
3253;SDS011;1639;42.804;23.342;2023-04-25T10:31:24;4.63;;;1.30;;
3253;SDS011;1639;42.804;23.342;2023-04-25T10:33:50;4.70;;;1.30;;
3253;SDS011;1639;42.804;23.342;2023-04-25T10:36:20;4.67;;;1.30;;
3253;SDS011;1639;42.804;23.342;2023-04-25T10:38:47;5.20;;;1.50;;
3253;SDS011;1639;42.804;23.342;2023-04-25T10:41:17;4.70;;;1.13;;
3253;SDS011;1639;42.804;23.342;2023-04-25T10:43:44;4.70;;;1.20;;
3253;SDS011;1639;42.804;23.342;2023-04-25T10:48:48;4.90;;;1.23;;
3253;SDS011;1639;42.804;23.342;2023-04-25T10:51:16;4.70;;;1.20;;
3253;SDS011;1639;42.804;23.342;2023-04-25T10:54:07;5.10;;;1.33;;
3253;SDS011;1639;42.804;23.342;2023-04-25T10:56:38;4.87;;;1.30;;
3253;SDS011;1639;42.804;23.342;2023-04-25T11:01:42;4.87;;;1.40;;
3253;SDS011;1639;42.804;23.342;2023-04-25T11:04:34;4.53;;;1.17;;
3253;SDS011;1639;42.804;23.342;2023-04-25T11:09:32;5.80;;;1.93;;
3253;SDS011;1639;42.804;23.342;2023-04-25T11:11:58;5.90;;;2.87;;
3253;SDS011;1639;42.804;23.342;2023-04-25T11:14:25;4.77;;;1.60;;
3253;SDS011;1639;42.804;23.342;2023-04-25T11:16:55;4.63;;;1.30;;
3253;SDS011;1639;42.804;23.342;2023-04-25T11:19:21;5.60;;;1.40;;
3253;SDS011;1639;42.804;23.342;2023-04-25T11:21:47;4.63;;;1.30;;
3253;SDS011;1639;42.804;23.342;2023-04-25T11:24:13;4.70;;;1.40;;
3253;SDS011;1639;42.804;23.342;2023-04-25T11:26:38;4.70;;;1.50;;
3253;SDS011;1639;42.804;23.342;2023-04-25T11:29:06;4.53;;;1.20;;
3253;SDS011;1639;42.804;23.342;2023-04-25T11:31:31;4.57;;;1.17;;
3253;SDS011;1639;42.804;23.342;2023-04-25T11:33:56;4.77;;;1.50;;
3253;SDS011;1639;42.804;23.342;2023-04-25T11:36:23;4.50;;;1.10;;
3253;SDS011;1639;42.804;23.342;2023-04-25T11:38:50;4.53;;;1.10;;
3253;SDS011;1639;42.804;23.342;2023-04-25T11:41:17;4.73;;;1.43;;
3253;SDS011;1639;42.804;23.342;2023-04-25T11:43:43;4.73;;;1.57;;
3253;SDS011;1639;42.804;23.342;2023-04-25T11:46:09;4.60;;;1.30;;
3253;SDS011;1639;42.804;23.342;2023-04-25T11:48:38;4.80;;;1.60;;
3253;SDS011;1639;42.804;23.342;2023-04-25T11:51:07;6.27;;;1.80;;
3253;SDS011;1639;42.804;23.342;2023-04-25T11:53:35;4.80;;;1.50;;
3253;SDS011;1639;42.804;23.342;2023-04-25T11:56:01;4.50;;;1.10;;
3253;SDS011;1639;42.804;23.342;2023-04-25T11:58:27;4.57;;;1.30;;
3253;SDS011;1639;42.804;23.342;2023-04-25T12:00:52;4.50;;;1.30;;
3253;SDS011;1639;42.804;23.342;2023-04-25T12:03:18;4.70;;;1.50;;
3253;SDS011;1639;42.804;23.342;2023-04-25T12:05:45;6.70;;;1.60;;
3253;SDS011;1639;42.804;23.342;2023-04-25T12:08:11;4.90;;;1.50;;
3253;SDS011;1639;42.804;23.342;2023-04-25T12:10:40;4.53;;;1.30;;
3253;SDS011;1639;42.804;23.342;2023-04-25T12:16:02;4.60;;;1.40;;
3253;SDS011;1639;42.804;23.342;2023-04-25T12:18:28;4.60;;;1.30;;
3253;SDS011;1639;42.804;23.342;2023-04-25T12:20:53;4.50;;;1.20;;
3253;SDS011;1639;42.804;23.342;2023-04-25T12:23:28;7.37;;;1.50;;
3253;SDS011;1639;42.804;23.342;2023-04-25T12:25:53;4.50;;;1.20;;
3253;SDS011;1639;42.804;23.342;2023-04-25T12:28:25;5.63;;;1.40;;
3253;SDS011;1639;42.804;23.342;2023-04-25T12:33:24;4.50;;;1.20;;
3253;SDS011;1639;42.804;23.342;2023-04-25T12:35:54;4.70;;;1.30;;
3253;SDS011;1639;42.804;23.342;2023-04-25T12:40:54;5.10;;;1.53;;
3253;SDS011;1639;42.804;23.342;2023-04-25T12:43:20;5.00;;;1.20;;
3253;SDS011;1639;42.804;23.342;2023-04-25T12:45:49;4.57;;;1.17;;
3253;SDS011;1639;42.804;23.342;2023-04-25T12:48:16;4.63;;;1.33;;
3253;SDS011;1639;42.804;23.342;2023-04-25T12:50:42;4.70;;;1.60;;
3253;SDS011;1639;42.804;23.342;2023-04-25T12:53:07;5.13;;;1.57;;
3253;SDS011;1639;42.804;23.342;2023-04-25T12:55:33;4.57;;;1.20;;
3253;SDS011;1639;42.804;23.342;2023-04-25T12:57:58;4.60;;;1.20;;
3253;SDS011;1639;42.804;23.342;2023-04-25T13:00:23;4.60;;;1.30;;
3253;SDS011;1639;42.804;23.342;2023-04-25T13:02:49;4.80;;;1.33;;
3253;SDS011;1639;42.804;23.342;2023-04-25T13:05:15;4.57;;;1.20;;
3253;SDS011;1639;42.804;23.342;2023-04-25T13:07:40;4.60;;;1.30;;
3253;SDS011;1639;42.804;23.342;2023-04-25T13:10:06;4.70;;;1.47;;
3253;SDS011;1639;42.804;23.342;2023-04-25T13:12:32;4.70;;;1.50;;
3253;SDS011;1639;42.804;23.342;2023-04-25T13:14:58;4.60;;;1.30;;
3253;SDS011;1639;42.804;23.342;2023-04-25T13:17:23;4.63;;;1.30;;
3253;SDS011;1639;42.804;23.342;2023-04-25T13:19:49;4.60;;;1.30;;
3253;SDS011;1639;42.804;23.342;2023-04-25T13:22:14;5.27;;;1.97;;
3253;SDS011;1639;42.804;23.342;2023-04-25T13:24:41;4.40;;;1.30;;
3253;SDS011;1639;42.804;23.342;2023-04-25T13:27:07;4.60;;;1.20;;
3253;SDS011;1639;42.804;23.342;2023-04-25T13:29:33;4.60;;;1.30;;
3253;SDS011;1639;42.804;23.342;2023-04-25T13:32:00;7.80;;;2.07;;
3253;SDS011;1639;42.804;23.342;2023-04-25T13:34:26;5.03;;;1.63;;
3253;SDS011;1639;42.804;23.342;2023-04-25T13:36:52;5.20;;;1.50;;
3253;SDS011;1639;42.804;23.342;2023-04-25T13:39:17;4.60;;;1.30;;
3253;SDS011;1639;42.804;23.342;2023-04-25T13:41:42;4.90;;;1.50;;
3253;SDS011;1639;42.804;23.342;2023-04-25T13:44:08;6.70;;;1.60;;
3253;SDS011;1639;42.804;23.342;2023-04-25T13:46:33;5.43;;;1.80;;
3253;SDS011;1639;42.804;23.342;2023-04-25T13:48:59;4.77;;;1.63;;
3253;SDS011;1639;42.804;23.342;2023-04-25T13:51:26;5.30;;;1.53;;
3253;SDS011;1639;42.804;23.342;2023-04-25T13:53:51;5.10;;;1.60;;
3253;SDS011;1639;42.804;23.342;2023-04-25T13:56:17;4.67;;;1.37;;
3253;SDS011;1639;42.804;23.342;2023-04-25T13:58:44;5.03;;;2.27;;
3253;SDS011;1639;42.804;23.342;2023-04-25T14:01:10;5.10;;;1.50;;
3253;SDS011;1639;42.804;23.342;2023-04-25T14:03:35;4.70;;;1.37;;
3253;SDS011;1639;42.804;23.342;2023-04-25T14:06:01;4.67;;;1.50;;
3253;SDS011;1639;42.804;23.342;2023-04-25T14:08:26;4.53;;;1.23;;
3253;SDS011;1639;42.804;23.342;2023-04-25T14:10:52;4.70;;;1.30;;
3253;SDS011;1639;42.804;23.342;2023-04-25T14:13:17;5.20;;;1.73;;
3253;SDS011;1639;42.804;23.342;2023-04-25T14:15:43;4.80;;;1.50;;
3253;SDS011;1639;42.804;23.342;2023-04-25T14:18:08;9.23;;;1.70;;
3253;SDS011;1639;42.804;23.342;2023-04-25T14:20:34;5.10;;;1.53;;
3253;SDS011;1639;42.804;23.342;2023-04-25T14:22:59;4.80;;;1.50;;
3253;SDS011;1639;42.804;23.342;2023-04-25T14:25:25;4.80;;;1.30;;
3253;SDS011;1639;42.804;23.342;2023-04-25T14:27:52;4.43;;;1.20;;
3253;SDS011;1639;42.804;23.342;2023-04-25T14:30:18;4.80;;;1.63;;
3253;SDS011;1639;42.804;23.342;2023-04-25T14:32:44;4.70;;;1.20;;
3253;SDS011;1639;42.804;23.342;2023-04-25T14:35:10;4.60;;;1.30;;
3253;SDS011;1639;42.804;23.342;2023-04-25T14:37:36;4.53;;;1.20;;
3253;SDS011;1639;42.804;23.342;2023-04-25T14:40:02;4.70;;;1.40;;
3253;SDS011;1639;42.804;23.342;2023-04-25T14:42:28;4.60;;;1.20;;
3253;SDS011;1639;42.804;23.342;2023-04-25T14:44:53;4.60;;;1.20;;
3253;SDS011;1639;42.804;23.342;2023-04-25T14:47:19;4.60;;;1.40;;
3253;SDS011;1639;42.804;23.342;2023-04-25T14:49:44;5.17;;;1.53;;
3253;SDS011;1639;42.804;23.342;2023-04-25T14:52:16;4.90;;;1.50;;
3253;SDS011;1639;42.804;23.342;2023-04-25T14:54:41;4.80;;;1.60;;
3253;SDS011;1639;42.804;23.342;2023-04-25T14:57:06;6.03;;;1.63;;
3253;SDS011;1639;42.804;23.342;2023-04-25T14:59:32;4.57;;;1.20;;
3253;SDS011;1639;42.804;23.342;2023-04-25T15:01:58;4.80;;;1.73;;
3253;SDS011;1639;42.804;23.342;2023-04-25T15:04:23;7.17;;;2.40;;
3253;SDS011;1639;42.804;23.342;2023-04-25T15:06:48;5.73;;;1.60;;
3253;SDS011;1639;42.804;23.342;2023-04-25T15:09:14;5.20;;;1.90;;
3253;SDS011;1639;42.804;23.342;2023-04-25T15:11:41;7.00;;;2.07;;
3253;SDS011;1639;42.804;23.342;2023-04-25T15:14:07;4.77;;;1.50;;